Time;durP1;ratioP1;P1;durP2;ratioP2;P2;SDS_P1;SDS_P2;PMS_P1;PMS_P2;Temp;Humidity;BMP_temperature;BMP_pressure;BME280_temperature;BME280_humidity;BME280_pressure;Samples;Min_cycle;Max_cycle;Signal;HPM_P1;HPM_P2
2021/07/03 00:01:56;;;;;;;18.98;8.52;;;;;;;13.90;87.90;100477.94;4967633;28;20018;-81
2021/07/03 00:04:22;;;;;;;20.90;9.10;;;;;;;13.97;87.90;100483.34;4960543;28;20654;-81
2021/07/03 00:06:47;;;;;;;19.95;8.98;;;;;;;13.90;87.63;100477.13;4961183;28;20039;-81
2021/07/03 00:09:13;;;;;;;21.80;9.95;;;;;;;13.85;87.65;100469.63;4953533;28;20026;-81
2021/07/03 00:11:38;;;;;;;17.65;8.50;;;;;;;13.90;87.88;100469.84;4966027;28;20034;-81
2021/07/03 00:14:04;;;;;;;17.10;9.45;;;;;;;13.92;87.90;100470.47;4979165;28;20104;-80
2021/07/03 00:16:29;;;;;;;21.10;8.63;;;;;;;13.98;87.90;100480.47;4978866;28;20026;-81
2021/07/03 00:18:55;;;;;;;20.45;9.38;;;;;;;14.01;87.97;100469.22;4995178;28;20037;-81
2021/07/03 00:21:20;;;;;;;17.73;8.98;;;;;;;14.02;87.85;100470.88;4983690;28;20091;-81
2021/07/03 00:23:46;;;;;;;19.42;9.20;;;;;;;13.99;88.00;100456.97;4970906;28;20022;-80
2021/07/03 00:26:11;;;;;;;19.65;9.52;;;;;;;14.00;88.30;100467.56;4969778;28;20018;-81
2021/07/03 00:28:36;;;;;;;19.90;9.50;;;;;;;13.94;88.66;100465.69;4961837;28;20038;-80
2021/07/03 00:31:02;;;;;;;21.67;9.57;;;;;;;13.95;88.62;100459.25;4987161;28;20133;-81
2021/07/03 00:33:28;;;;;;;18.00;9.07;;;;;;;13.90;88.86;100455.50;4977779;28;20046;-80
2021/07/03 00:35:53;;;;;;;18.77;9.25;;;;;;;13.80;88.96;100445.06;4994225;28;20461;-81
2021/07/03 00:38:19;;;;;;;18.15;9.27;;;;;;;13.82;89.06;100453.81;4977040;28;20459;-80
2021/07/03 00:40:44;;;;;;;17.77;8.90;;;;;;;13.80;89.24;100439.66;4971682;28;20090;-80
2021/07/03 00:43:10;;;;;;;21.20;9.15;;;;;;;13.83;89.77;100453.59;4974177;28;20011;-80
2021/07/03 00:45:36;;;;;;;19.80;9.80;;;;;;;13.77;89.59;100429.28;4989525;28;20028;-82
2021/07/03 00:48:01;;;;;;;21.98;11.00;;;;;;;13.88;89.17;100444.88;4977384;28;20402;-80
2021/07/03 00:50:27;;;;;;;21.92;10.18;;;;;;;13.87;89.31;100432.41;4977681;28;20088;-81
2021/07/03 00:52:52;;;;;;;23.65;9.32;;;;;;;13.88;89.61;100436.78;4974451;28;20450;-81
2021/07/03 00:55:18;;;;;;;20.60;9.45;;;;;;;13.73;89.71;100411.78;4986282;28;20023;-81
2021/07/03 00:57:44;;;;;;;19.25;9.40;;;;;;;13.78;90.04;100423.66;4967043;28;20046;-81
2021/07/03 01:00:11;;;;;;;20.65;9.73;;;;;;;13.79;90.09;100422.63;4961786;28;20027;-81
2021/07/03 01:02:37;;;;;;;19.40;9.18;;;;;;;13.78;89.88;100420.13;4975746;28;20494;-80
2021/07/03 01:05:04;;;;;;;21.65;9.55;;;;;;;13.74;90.04;100402.66;4978713;28;20062;-80
2021/07/03 01:07:29;;;;;;;20.73;8.85;;;;;;;13.80;90.28;100412.66;4960126;28;20038;-81
2021/07/03 01:09:55;;;;;;;18.67;9.63;;;;;;;13.78;90.34;100412.00;4975313;28;20909;-80
2021/07/03 01:12:20;;;;;;;18.65;8.93;;;;;;;13.76;90.51;100414.09;4996990;28;20038;-81
2021/07/03 01:14:47;;;;;;;17.67;8.98;;;;;;;13.73;90.65;100401.81;4961648;28;20402;-80
2021/07/03 01:17:14;;;;;;;21.00;10.63;;;;;;;13.78;90.66;100403.91;4977470;28;20054;-81
2021/07/03 01:19:40;;;;;;;18.75;9.05;;;;;;;13.68;90.28;100387.25;4961847;28;20023;-80
2021/07/03 01:22:09;;;;;;;21.83;11.18;;;;;;;13.82;90.36;100411.41;4976122;28;20026;-80
2021/07/03 01:24:35;;;;;;;18.67;9.20;;;;;;;13.80;90.29;100399.13;4990319;28;20499;-81
2021/07/03 01:27:00;;;;;;;20.73;9.88;;;;;;;13.75;90.01;100388.13;4957616;28;20108;-81
2021/07/03 01:29:27;;;;;;;18.15;9.20;;;;;;;13.77;90.48;100399.56;4965104;28;20034;-81
2021/07/03 01:31:54;;;;;;;18.27;8.00;;;;;;;13.74;90.57;100384.59;4971844;28;20022;-81
2021/07/03 01:34:22;;;;;;;15.60;8.23;;;;;;;13.72;90.61;100388.53;4964584;28;20038;-81
2021/07/03 01:36:48;;;;;;;17.63;9.30;;;;;;;13.71;90.50;100378.78;4970453;28;20523;-81
2021/07/03 01:39:14;;;;;;;19.67;9.35;;;;;;;13.76;90.48;100387.06;4962490;28;20145;-81
2021/07/03 01:41:40;;;;;;;18.17;9.05;;;;;;;13.76;90.61;100384.34;4986979;28;20018;-80
2021/07/03 01:44:05;;;;;;;17.30;9.35;;;;;;;13.77;90.76;100380.63;4953086;28;20035;-81
2021/07/03 01:46:31;;;;;;;15.27;8.55;;;;;;;13.78;90.87;100376.88;4973086;28;20154;-81
2021/07/03 01:49:05;;;;;;;17.05;8.82;;;;;;;13.76;90.65;100373.56;4952354;28;20030;-81
2021/07/03 01:51:31;;;;;;;18.80;9.10;;;;;;;13.80;90.82;100375.66;4963905;28;20050;-81
2021/07/03 01:53:57;;;;;;;18.42;8.65;;;;;;;13.79;90.78;100365.06;4971428;28;20029;-81
2021/07/03 01:56:22;;;;;;;16.75;8.88;;;;;;;13.74;90.57;100360.25;4935839;28;20027;-81
2021/07/03 01:58:48;;;;;;;20.17;9.73;;;;;;;13.72;91.01;100356.09;4982915;28;20037;-81
2021/07/03 02:01:13;;;;;;;17.00;8.73;;;;;;;13.72;90.92;100353.41;4964584;28;20472;-81
2021/07/03 02:03:39;;;;;;;17.83;9.10;;;;;;;13.68;90.90;100339.47;4968245;28;20042;-81
2021/07/03 02:06:05;;;;;;;18.33;8.95;;;;;;;13.67;91.12;100339.69;4979607;28;20026;-81
2021/07/03 02:08:31;;;;;;;18.27;8.55;;;;;;;13.62;91.01;100341.13;4971294;28;20034;-81
2021/07/03 02:10:57;;;;;;;19.50;8.98;;;;;;;13.66;91.08;100332.63;4962896;28;20392;-81
2021/07/03 02:13:23;;;;;;;17.50;8.63;;;;;;;13.68;91.29;100347.59;4972030;28;20061;-81
2021/07/03 02:15:48;;;;;;;16.23;8.65;;;;;;;13.67;90.85;100339.69;4978618;28;20455;-81
2021/07/03 02:18:14;;;;;;;16.48;8.18;;;;;;;13.74;90.94;100337.81;4975126;28;20044;-81
2021/07/03 02:20:40;;;;;;;16.27;8.68;;;;;;;13.75;90.47;100344.88;4945914;28;20030;-82
2021/07/03 02:23:05;;;;;;;17.00;8.55;;;;;;;13.70;90.74;100328.44;4974656;28;20117;-81
2021/07/03 02:25:33;;;;;;;19.52;8.15;;;;;;;13.76;90.40;100335.72;4969092;28;20026;-81
2021/07/03 02:27:59;;;;;;;17.33;8.43;;;;;;;13.77;90.40;100332.00;4972120;28;20038;-81
2021/07/03 02:30:24;;;;;;;15.65;7.93;;;;;;;13.80;90.19;100327.00;4970040;28;20022;-81
2021/07/03 02:32:51;;;;;;;16.25;7.70;;;;;;;13.83;90.02;100320.34;4975499;28;20040;-81
2021/07/03 02:35:17;;;;;;;19.30;8.90;;;;;;;13.78;90.23;100303.94;4962885;28;20105;-81
2021/07/03 02:37:43;;;;;;;13.98;7.70;;;;;;;13.85;90.09;100312.88;4958734;28;20030;-81
2021/07/03 02:40:11;;;;;;;14.63;7.20;;;;;;;13.82;90.02;100311.41;4963674;28;20031;-81
2021/07/03 02:42:37;;;;;;;12.60;7.10;;;;;;;13.85;90.23;100312.88;4976535;28;20037;-81
2021/07/03 02:45:08;;;;;;;12.48;6.80;;;;;;;13.82;89.83;100310.59;4979291;28;20130;-81
2021/07/03 02:47:34;;;;;;;14.80;7.70;;;;;;;13.89;89.66;100313.28;4961428;28;20410;-81
2021/07/03 02:50:00;;;;;;;14.75;8.00;;;;;;;13.85;89.59;100302.06;4939665;28;20035;-81
2021/07/03 02:52:25;;;;;;;15.55;7.53;;;;;;;13.77;89.29;100284.19;4967707;28;20029;-82
2021/07/03 02:54:50;;;;;;;19.50;7.45;;;;;;;13.77;89.63;100283.38;4971437;28;20390;-81
2021/07/03 02:57:17;;;;;;;16.33;7.55;;;;;;;13.77;89.46;100278.78;4952037;28;20030;-82
2021/07/03 02:59:42;;;;;;;15.68;7.47;;;;;;;13.83;89.17;100298.72;4986492;28;20026;-82
2021/07/03 03:02:08;;;;;;;11.68;6.88;;;;;;;13.75;89.39;100291.66;4966954;28;20410;-79
2021/07/03 03:04:33;;;;;;;14.95;7.00;;;;;;;13.78;89.36;100290.41;4976329;28;20026;-82
2021/07/03 03:06:59;;;;;;;13.23;6.68;;;;;;;13.67;89.09;100277.53;4975608;28;20061;-81
2021/07/03 03:09:26;;;;;;;18.17;7.25;;;;;;;13.73;89.33;100284.81;4962812;28;20026;-82
2021/07/03 03:11:51;;;;;;;14.38;6.90;;;;;;;13.74;89.22;100291.88;4977095;28;20094;-81
2021/07/03 03:14:17;;;;;;;10.45;6.22;;;;;;;13.70;89.02;100277.94;4980313;28;20639;-81
2021/07/03 03:16:42;;;;;;;15.50;8.07;;;;;;;13.71;89.45;100276.09;4989049;28;20026;-82
2021/07/03 03:19:08;;;;;;;16.60;8.23;;;;;;;13.73;89.00;100271.28;4972124;28;20431;-81
2021/07/03 03:21:33;;;;;;;13.75;7.60;;;;;;;13.76;89.15;100269.03;4980505;28;20492;-82
2021/07/03 03:23:59;;;;;;;14.95;7.80;;;;;;;13.74;89.28;100271.09;4980146;28;20097;-81
2021/07/03 03:26:24;;;;;;;12.35;7.15;;;;;;;13.72;89.36;100254.25;4975681;28;20030;-82
2021/07/03 03:28:49;;;;;;;14.00;6.70;;;;;;;13.72;89.33;100254.25;4979939;28;20023;-81
2021/07/03 03:31:15;;;;;;;14.48;7.10;;;;;;;13.63;89.58;100242.84;4981273;28;20050;-81
2021/07/03 03:33:40;;;;;;;14.68;7.05;;;;;;;13.78;89.18;100258.00;4969546;28;20093;-81
2021/07/03 03:36:06;;;;;;;13.98;7.32;;;;;;;13.75;89.34;100261.13;4985386;28;20112;-82
2021/07/03 03:38:31;;;;;;;14.60;7.65;;;;;;;13.72;89.36;100258.84;4986802;28;20030;-82
2021/07/03 03:40:57;;;;;;;14.95;7.63;;;;;;;13.64;89.49;100247.19;4963776;28;20061;-81
2021/07/03 03:43:22;;;;;;;14.43;8.23;;;;;;;13.72;89.48;100258.84;4979675;28;20034;-81
2021/07/03 03:45:48;;;;;;;15.50;8.00;;;;;;;13.72;89.64;100256.97;4982449;28;20037;-80
2021/07/03 03:48:14;;;;;;;16.55;8.07;;;;;;;13.74;89.59;100260.28;4974736;28;20038;-81
2021/07/03 03:50:39;;;;;;;16.17;7.93;;;;;;;13.73;89.93;100255.09;4961153;28;20107;-81
2021/07/03 03:53:05;;;;;;;16.35;8.02;;;;;;;13.76;89.98;100251.97;4976218;28;20026;-81
2021/07/03 03:55:31;;;;;;;13.68;7.70;;;;;;;13.75;89.75;100250.31;4988012;28;20036;-81
2021/07/03 03:57:56;;;;;;;16.25;8.25;;;;;;;13.74;90.03;100246.78;4972989;28;20030;-81
2021/07/03 04:00:22;;;;;;;13.95;8.00;;;;;;;13.73;90.04;100245.09;4978872;28;20030;-81
2021/07/03 04:02:48;;;;;;;16.45;8.23;;;;;;;13.73;90.09;100242.41;5001352;28;20042;-82
2021/07/03 04:05:14;;;;;;;14.65;7.10;;;;;;;13.79;89.76;100254.28;4973501;28;20034;-82
2021/07/03 04:07:40;;;;;;;17.70;8.82;;;;;;;13.76;89.65;100239.31;4983310;28;20081;-81
2021/07/03 04:10:08;;;;;;;15.48;7.13;;;;;;;13.74;89.74;100235.97;4977234;28;20159;-81
2021/07/03 04:12:33;;;;;;;11.90;7.68;;;;;;;13.77;89.51;100232.03;4972498;28;20030;-81
2021/07/03 04:14:59;;;;;;;13.63;7.35;;;;;;;13.83;89.44;100245.50;4970190;28;20045;-82
2021/07/03 04:17:25;;;;;;;13.10;7.40;;;;;;;13.83;89.55;100233.88;4980221;28;20022;-81
2021/07/03 04:19:51;;;;;;;16.83;8.35;;;;;;;13.83;89.39;100234.69;4983339;28;20033;-81
2021/07/03 04:22:17;;;;;;;15.98;7.72;;;;;;;13.80;89.25;100223.50;4976387;28;20030;-81
2021/07/03 04:24:43;;;;;;;13.13;7.63;;;;;;;13.83;89.27;100225.78;4971179;28;20026;-81
2021/07/03 04:27:08;;;;;;;16.58;7.95;;;;;;;13.82;89.34;100235.75;4993720;28;20122;-81
2021/07/03 04:29:34;;;;;;;14.18;7.60;;;;;;;13.79;89.55;100219.13;4995610;28;20045;-81
2021/07/03 04:32:00;;;;;;;14.07;8.20;;;;;;;13.84;89.22;100228.28;4971980;28;20058;-82
2021/07/03 04:34:26;;;;;;;16.70;8.88;;;;;;;13.88;89.33;100225.16;4975168;28;20070;-81
2021/07/03 04:36:51;;;;;;;12.77;7.32;;;;;;;13.84;89.17;100222.88;4969481;28;20022;-81
2021/07/03 04:39:17;;;;;;;14.02;7.65;;;;;;;13.90;89.21;100218.50;4976200;28;20432;-81
2021/07/03 04:41:42;;;;;;;14.70;8.43;;;;;;;13.91;89.18;100222.84;4977801;28;20441;-81
2021/07/03 04:44:08;;;;;;;11.38;6.82;;;;;;;13.90;88.90;100223.91;4977489;28;20445;-81
2021/07/03 04:46:34;;;;;;;11.50;6.53;;;;;;;13.90;89.28;100228.47;4961648;28;20072;-81
2021/07/03 04:49:00;;;;;;;16.45;7.93;;;;;;;13.92;89.07;100226.38;4994472;28;20529;-82
2021/07/03 04:51:26;;;;;;;13.55;7.45;;;;;;;13.86;89.01;100211.84;4974767;28;20843;-80
2021/07/03 04:53:51;;;;;;;12.68;7.38;;;;;;;13.88;89.00;100219.75;4956540;28;20033;-80
2021/07/03 04:56:17;;;;;;;15.38;7.93;;;;;;;13.91;89.22;100222.84;4975281;28;20018;-81
2021/07/03 04:58:44;;;;;;;16.55;8.35;;;;;;;13.91;89.02;100219.31;4975658;28;20023;-80
2021/07/03 05:01:09;;;;;;;13.15;7.25;;;;;;;13.91;88.94;100220.13;4969928;28;20515;-80
2021/07/03 05:03:35;;;;;;;15.80;7.65;;;;;;;13.96;88.95;100233.84;4966305;28;20561;-82
2021/07/03 05:06:00;;;;;;;16.70;8.13;;;;;;;13.94;88.76;100224.28;4970090;28;20026;-82
2021/07/03 05:08:26;;;;;;;16.90;8.40;;;;;;;13.95;88.50;100218.69;4971220;28;20658;-82
2021/07/03 05:10:51;;;;;;;15.15;8.23;;;;;;;13.96;88.53;100212.22;4970803;28;20041;-82
2021/07/03 05:13:16;;;;;;;14.75;7.38;;;;;;;14.01;88.56;100220.53;4972548;28;20022;-81
2021/07/03 05:15:42;;;;;;;17.55;8.60;;;;;;;13.87;88.88;100197.31;4972267;28;20036;-82
2021/07/03 05:18:07;;;;;;;13.45;7.63;;;;;;;13.93;88.61;100199.16;4971952;28;20034;-80
2021/07/03 05:20:33;;;;;;;19.27;7.82;;;;;;;14.05;88.74;100210.13;4978446;28;20038;-82
2021/07/03 05:22:58;;;;;;;17.08;9.25;;;;;;;14.01;88.74;100201.63;4973606;28;20467;-81
2021/07/03 05:25:24;;;;;;;11.52;7.47;;;;;;;14.06;88.86;100211.81;4987686;28;20030;-81
2021/07/03 05:27:49;;;;;;;18.42;8.75;;;;;;;14.02;88.82;100203.25;4970403;28;20030;-80
2021/07/03 05:30:15;;;;;;;15.57;8.20;;;;;;;14.05;88.81;100204.72;4987968;28;20026;-81
2021/07/03 05:32:40;;;;;;;13.85;7.35;;;;;;;13.98;88.90;100190.41;4972540;28;20426;-82
2021/07/03 05:35:07;;;;;;;14.27;7.05;;;;;;;14.10;88.94;100201.38;4978479;28;20037;-80
2021/07/03 05:37:32;;;;;;;11.75;7.63;;;;;;;14.01;88.93;100182.69;4973066;28;20109;-81
2021/07/03 05:39:58;;;;;;;13.25;7.07;;;;;;;14.03;89.31;100186.03;4985482;28;20038;-80
2021/07/03 05:42:23;;;;;;;13.40;6.95;;;;;;;14.06;89.45;100188.28;4970695;28;20023;-81
2021/07/03 05:44:48;;;;;;;12.18;6.82;;;;;;;14.10;88.96;100180.59;4985338;28;20030;-81
2021/07/03 05:47:14;;;;;;;15.82;7.10;;;;;;;14.14;89.10;100172.91;4975271;28;20034;-81
2021/07/03 05:49:40;;;;;;;13.70;7.03;;;;;;;14.19;88.74;100178.50;4961312;28;20076;-81
2021/07/03 05:52:06;;;;;;;12.57;5.93;;;;;;;14.27;88.77;100192.59;4958842;28;20027;-82
2021/07/03 05:54:32;;;;;;;10.43;6.03;;;;;;;14.32;88.24;100199.25;4950480;28;20037;-82
2021/07/03 05:56:58;;;;;;;10.80;6.43;;;;;;;14.33;88.16;100185.50;4960920;28;20038;-82
2021/07/03 05:59:23;;;;;;;11.38;5.95;;;;;;;14.34;88.00;100192.56;4954827;28;20026;-82
2021/07/03 06:01:49;;;;;;;10.65;5.38;;;;;;;14.38;87.92;100196.50;4966383;28;20502;-81
2021/07/03 06:04:14;;;;;;;10.52;6.22;;;;;;;14.42;87.73;100188.78;4978151;28;20038;-81
2021/07/03 06:06:40;;;;;;;11.13;5.80;;;;;;;14.39;87.75;100179.22;4983856;28;20027;-81
2021/07/03 06:09:05;;;;;;;9.93;6.05;;;;;;;14.48;87.54;100194.19;4978824;28;20033;-82
2021/07/03 06:11:31;;;;;;;9.05;5.20;;;;;;;14.49;87.76;100193.13;4972802;28;20026;-81
2021/07/03 06:13:56;;;;;;;10.10;5.82;;;;;;;14.49;87.70;100185.00;4987800;28;20034;-82
2021/07/03 06:16:22;;;;;;;11.07;6.00;;;;;;;14.55;87.70;100199.56;4973376;28;20084;-81
2021/07/03 06:18:48;;;;;;;10.57;6.38;;;;;;;14.60;87.26;100188.09;4959156;28;20044;-81
2021/07/03 06:21:13;;;;;;;7.82;5.00;;;;;;;14.67;87.07;100197.84;4969943;28;20022;-80
2021/07/03 06:23:39;;;;;;;9.25;5.20;;;;;;;14.70;86.92;100194.72;4959892;28;20588;-82
2021/07/03 06:26:05;;;;;;;9.85;6.18;;;;;;;14.76;86.83;100197.59;4973128;28;20030;-82
2021/07/03 06:28:31;;;;;;;9.90;5.35;;;;;;;14.80;86.78;100199.66;4958677;28;20043;-81
2021/07/03 06:30:57;;;;;;;8.82;4.72;;;;;;;14.81;86.58;100195.91;4986140;28;20030;-82
2021/07/03 06:33:23;;;;;;;8.25;4.93;;;;;;;14.82;86.42;100192.16;4955094;28;20088;-81
2021/07/03 06:35:50;;;;;;;10.27;4.53;;;;;;;14.75;86.46;100182.41;4970160;28;20066;-81
2021/07/03 06:38:15;;;;;;;10.15;4.80;;;;;;;14.74;86.38;100184.31;4974166;28;20054;-82
2021/07/03 06:40:41;;;;;;;10.10;5.35;;;;;;;14.75;86.46;100194.06;4948339;28;20050;-82
2021/07/03 06:43:06;;;;;;;8.60;4.07;;;;;;;14.77;86.35;100185.75;4975040;28;20038;-81
2021/07/03 06:45:32;;;;;;;10.00;4.65;;;;;;;14.74;86.44;100181.59;4975357;28;20033;-82
2021/07/03 06:47:57;;;;;;;9.77;5.10;;;;;;;14.81;86.43;100195.06;4967604;28;20034;-81
2021/07/03 06:50:23;;;;;;;6.30;3.97;;;;;;;14.83;86.36;100191.09;4976478;28;20398;-81
2021/07/03 06:52:48;;;;;;;8.60;4.65;;;;;;;14.80;86.19;100182.59;4975969;28;20031;-81
2021/07/03 06:55:14;;;;;;;7.85;4.80;;;;;;;14.84;86.16;100192.75;4974865;28;20034;-82
2021/07/03 06:57:39;;;;;;;7.18;4.75;;;;;;;14.60;86.28;100152.94;4972521;28;20412;-81
2021/07/03 07:00:06;;;;;;;9.18;4.50;;;;;;;14.86;86.24;100185.25;4976816;28;20034;-82
2021/07/03 07:02:31;;;;;;;8.43;4.43;;;;;;;14.83;86.31;100176.75;4975793;28;20027;-82
2021/07/03 07:04:57;;;;;;;8.77;4.65;;;;;;;14.92;86.33;100178.13;4972237;28;20058;-81
2021/07/03 07:07:22;;;;;;;7.78;4.15;;;;;;;14.92;86.20;100172.72;4973653;28;20031;-85
2021/07/03 07:09:48;;;;;;;6.32;3.90;;;;;;;14.99;86.08;100180.81;4995245;28;20458;-84
2021/07/03 07:12:13;;;;;;;7.10;4.53;;;;;;;15.01;86.11;100170.59;4973821;28;20042;-84
2021/07/03 07:14:41;;;;;;;6.90;4.40;;;;;;;15.07;85.84;100169.72;4979680;28;20109;-85
2021/07/03 07:17:07;;;;;;;10.23;3.97;;;;;;;15.11;85.90;100170.91;4962580;28;20038;-84
2021/07/03 07:19:33;;;;;;;6.85;4.10;;;;;;;15.10;85.36;100158.44;4977288;28;20042;-85
2021/07/03 07:21:58;;;;;;;5.88;3.72;;;;;;;15.18;85.48;100164.41;4978236;28;20415;-84
2021/07/03 07:24:24;;;;;;;7.20;3.92;;;;;;;15.24;85.51;100173.53;4976452;28;20085;-85
2021/07/03 07:26:49;;;;;;;7.13;4.18;;;;;;;15.22;85.58;100159.38;4970260;28;20434;-85
2021/07/03 07:29:15;;;;;;;8.13;3.97;;;;;;;15.29;85.34;100168.25;4976931;28;20129;-85
2021/07/03 07:31:40;;;;;;;5.78;3.80;;;;;;;15.29;85.16;100170.16;4973436;28;20379;-84
2021/07/03 07:34:06;;;;;;;5.47;3.25;;;;;;;15.31;85.25;100160.75;4994524;28;20036;-83
2021/07/03 07:36:31;;;;;;;6.18;3.38;;;;;;;15.27;85.13;100151.44;4978410;28;20030;-83
2021/07/03 07:38:57;;;;;;;5.22;3.35;;;;;;;15.30;85.06;100155.56;4980866;28;20031;-83
2021/07/03 07:41:22;;;;;;;6.47;3.47;;;;;;;15.36;84.91;100170.94;4978272;28;20033;-81
2021/07/03 07:43:48;;;;;;;7.25;3.88;;;;;;;15.34;84.92;100162.19;4973887;28;20030;-83
2021/07/03 07:46:13;;;;;;;6.05;3.30;;;;;;;15.40;84.98;100169.44;4974257;28;20026;-81
2021/07/03 07:48:40;;;;;;;6.10;3.10;;;;;;;15.31;84.95;100151.81;4971484;28;20034;-83
2021/07/03 07:51:06;;;;;;;5.28;3.15;;;;;;;15.44;84.80;100164.41;4972341;28;20030;-82
2021/07/03 07:53:32;;;;;;;5.47;3.30;;;;;;;15.52;84.54;100161.41;4969724;28;20538;-83
2021/07/03 07:55:58;;;;;;;4.50;2.95;;;;;;;15.59;84.36;100156.75;4992100;28;20026;-82
2021/07/03 07:58:24;;;;;;;4.78;2.60;;;;;;;15.67;84.03;100163.78;4987747;28;20027;-83
2021/07/03 08:00:49;;;;;;;4.30;2.75;;;;;;;15.66;83.94;100152.09;4978577;28;20022;-83
2021/07/03 08:03:15;;;;;;;6.85;3.28;;;;;;;15.68;83.58;100155.41;4976329;28;20954;-83
2021/07/03 08:05:40;;;;;;;5.07;2.90;;;;;;;15.64;83.52;100159.63;4964285;28;20027;-83
2021/07/03 08:08:06;;;;;;;5.68;2.60;;;;;;;15.60;83.51;100155.69;4961636;28;20061;-83
2021/07/03 08:10:36;;;;;;;7.45;2.90;;;;;;;15.61;83.83;100160.91;4961256;28;20454;-83
2021/07/03 08:13:02;;;;;;;5.72;2.83;;;;;;;15.63;83.76;100160.66;4956950;28;20037;-83
2021/07/03 08:15:28;;;;;;;5.45;2.90;;;;;;;15.60;83.81;100172.78;4981792;28;20022;-82
2021/07/03 08:17:53;;;;;;;4.82;2.67;;;;;;;15.46;84.07;100160.41;4978976;28;20061;-83
2021/07/03 08:20:21;;;;;;;3.88;2.40;;;;;;;15.49;84.59;100167.28;4989629;28;20081;-83
2021/07/03 08:22:48;;;;;;;4.53;2.80;;;;;;;15.44;84.97;100165.22;4977366;28;20014;-83
2021/07/03 08:25:14;;;;;;;3.85;2.45;;;;;;;15.36;85.36;100168.22;4958574;28;20575;-82
2021/07/03 08:27:40;;;;;;;5.00;2.55;;;;;;;15.34;85.90;100170.31;4975593;28;20026;-83
2021/07/03 08:30:06;;;;;;;4.88;2.78;;;;;;;15.34;86.20;100176.56;4967320;28;20098;-84
2021/07/03 08:32:32;;;;;;;5.50;3.20;;;;;;;15.28;86.30;100163.09;4960119;28;20057;-82
2021/07/03 08:34:58;;;;;;;5.18;2.85;;;;;;;15.24;86.42;100142.91;4975354;28;20057;-83
2021/07/03 08:37:23;;;;;;;4.15;2.35;;;;;;;15.34;86.55;100163.00;4976629;28;20030;-83
2021/07/03 08:39:49;;;;;;;4.47;2.22;;;;;;;15.18;86.47;100131.91;4974657;28;20033;-83
2021/07/03 08:42:14;;;;;;;3.40;2.28;;;;;;;15.33;86.39;100158.66;4956777;28;20030;-83
2021/07/03 08:44:47;;;;;;;3.92;2.53;;;;;;;15.32;86.55;100148.88;4963713;28;20106;-83
2021/07/03 08:47:17;;;;;;;3.42;2.10;;;;;;;15.43;86.70;100154.59;4991313;28;20042;-84
2021/07/03 08:49:51;;;;;;;3.75;2.53;;;;;;;15.41;86.66;100154.84;4973711;28;20113;-83
2021/07/03 08:52:16;;;;;;;3.15;2.00;;;;;;;15.38;86.69;100145.28;4980325;28;20756;-83
2021/07/03 08:54:42;;;;;;;4.25;2.20;;;;;;;15.39;86.85;100149.63;4973269;28;20027;-84
2021/07/03 08:57:10;;;;;;;9.73;2.38;;;;;;;15.34;87.26;100138.63;4965754;28;20041;-84
2021/07/03 08:59:39;;;;;;;4.18;2.40;;;;;;;15.40;87.68;100155.91;4957961;28;20246;-83
2021/07/03 09:02:05;;;;;;;5.30;2.30;;;;;;;15.38;87.97;100149.88;4960820;28;20022;-84
2021/07/03 09:04:41;;;;;;;4.43;1.90;;;;;;;15.34;88.10;100151.34;4974590;28;20026;-83
2021/07/03 09:07:10;;;;;;;3.25;2.03;;;;;;;15.32;88.05;100146.19;4979976;28;20035;-83
2021/07/03 09:09:35;;;;;;;3.15;1.73;;;;;;;15.30;88.24;100150.97;4992775;28;20038;-83
2021/07/03 09:12:01;;;;;;;3.38;1.80;;;;;;;15.26;88.28;100136.22;4967497;28;20030;-84
2021/07/03 09:14:29;;;;;;;3.60;2.05;;;;;;;15.39;88.27;100148.81;4960664;28;20041;-84
2021/07/03 09:16:59;;;;;;;6.32;2.30;;;;;;;15.46;88.31;100140.63;4961454;28;20093;-84
2021/07/03 09:19:29;;;;;;;5.03;2.35;;;;;;;15.55;89.00;100150.13;4977886;28;20026;-84
2021/07/03 09:21:54;;;;;;;4.38;2.28;;;;;;;15.60;88.55;100142.16;4956727;28;20463;-84
2021/07/03 09:24:20;;;;;;;3.97;2.08;;;;;;;15.58;88.52;100128.00;4962222;28;20030;-86
2021/07/03 09:26:57;;;;;;;4.60;2.22;;;;;;;15.67;88.78;100142.91;4983942;28;20029;-85
2021/07/03 09:29:22;;;;;;;4.13;2.10;;;;;;;15.73;88.62;100147.47;4974890;28;20026;-83
2021/07/03 09:31:48;;;;;;;4.97;2.05;;;;;;;15.80;88.66;100147.41;4975600;28;21080;-83
2021/07/03 09:34:15;;;;;;;6.15;2.92;;;;;;;15.81;88.60;100139.03;4990335;28;20037;-82
2021/07/03 09:36:40;;;;;;;3.42;2.03;;;;;;;15.78;88.43;100139.50;5006653;28;20034;-84
2021/07/03 09:39:05;;;;;;;3.60;2.33;;;;;;;15.78;88.11;100142.19;4982753;28;20026;-83
2021/07/03 09:41:34;;;;;;;2.85;1.90;;;;;;;15.83;87.97;100147.78;4978907;28;20019;-85
2021/07/03 09:44:05;;;;;;;3.97;2.40;;;;;;;15.76;87.91;100130.75;4978737;28;20022;-85
2021/07/03 09:46:36;;;;;;;5.53;3.00;;;;;;;15.81;87.93;100127.38;4967396;28;20047;-85
2021/07/03 09:49:07;;;;;;;3.30;2.00;;;;;;;15.79;88.05;100124.88;4994438;28;20034;-86
2021/07/03 09:51:41;;;;;;;3.13;1.98;;;;;;;15.89;88.18;100137.09;4967198;28;20040;-85
2021/07/03 09:54:08;;;;;;;5.18;2.17;;;;;;;15.91;87.93;100126.84;4961973;28;20050;-85
2021/07/03 09:56:34;;;;;;;4.32;2.20;;;;;;;15.95;87.76;100130.75;4976412;28;20086;-84
2021/07/03 09:58:59;;;;;;;3.10;1.92;;;;;;;15.99;87.63;100131.97;4959194;28;20058;-86
2021/07/03 10:01:25;;;;;;;4.22;2.60;;;;;;;16.07;87.80;100134.38;4988268;28;20076;-86
2021/07/03 10:03:52;;;;;;;3.92;2.53;;;;;;;15.94;87.45;100110.13;4960998;28;20022;-86
2021/07/03 10:06:29;;;;;;;6.80;2.47;;;;;;;15.99;87.53;100118.41;4960118;28;20049;-87
2021/07/03 10:09:04;;;;;;;4.38;2.38;;;;;;;15.99;87.28;100123.84;4958322;28;20031;-89
2021/07/03 10:11:31;;;;;;;5.95;2.80;;;;;;;15.83;87.60;100092.75;4974727;28;20053;-85
2021/07/03 10:14:03;;;;;;;5.93;2.40;;;;;;;16.02;87.70;100126.91;4969732;28;20018;-85
2021/07/03 10:16:29;;;;;;;5.57;2.70;;;;;;;15.96;87.78;100124.28;4978378;28;20108;-82
2021/07/03 10:19:15;;;;;;;4.90;2.75;;;;;;;15.92;88.14;100120.38;4980879;28;20022;-83
2021/07/03 10:21:42;;;;;;;5.57;2.95;;;;;;;15.91;88.20;100116.00;4980070;28;20101;-83
2021/07/03 10:24:23;;;;;;;4.25;2.63;;;;;;;15.88;88.27;100127.28;4977174;28;20050;-83
2021/07/03 10:26:52;;;;;;;6.45;2.75;;;;;;;15.79;88.65;100110.50;4988521;28;20118;-81
2021/07/03 10:29:23;;;;;;;5.05;2.97;;;;;;;15.75;88.91;100112.84;4977544;28;20183;-82
2021/07/03 10:31:51;;;;;;;7.55;3.75;;;;;;;15.79;88.98;100118.63;4977183;28;20553;-81
2021/07/03 10:34:33;;;;;;;5.22;3.13;;;;;;;15.78;89.28;100115.09;4971600;28;20336;-82
2021/07/03 10:37:03;;;;;;;4.80;2.90;;;;;;;15.83;89.18;100109.00;4962304;28;20104;-81
2021/07/03 10:39:33;;;;;;;6.53;3.17;;;;;;;15.94;89.24;100116.38;4959824;28;20466;-83
2021/07/03 10:41:59;;;;;;;6.07;3.22;;;;;;;16.00;89.14;100117.34;4973806;28;20104;-83
2021/07/03 10:44:35;;;;;;;5.10;3.10;;;;;;;15.97;89.14;100093.41;4972826;28;20476;-82
2021/07/03 10:47:12;;;;;;;5.13;3.28;;;;;;;16.11;88.90;100115.75;4976595;28;20041;-82
2021/07/03 10:49:38;;;;;;;6.65;3.33;;;;;;;16.12;88.75;100110.13;4982047;28;20093;-83
2021/07/03 10:52:16;;;;;;;6.07;3.30;;;;;;;16.03;88.96;100097.91;4984587;28;20053;-81
2021/07/03 10:54:41;;;;;;;4.40;2.90;;;;;;;16.05;88.91;100106.66;4962346;28;20030;-82
2021/07/03 10:57:10;;;;;;;5.35;3.25;;;;;;;15.98;89.19;100103.19;4976436;28;20025;-81
2021/07/03 10:59:38;;;;;;;6.85;3.33;;;;;;;15.99;89.38;100105.69;4984539;28;20078;-82
2021/07/03 11:02:13;;;;;;;7.68;3.60;;;;;;;16.07;89.43;100104.53;4978832;28;20031;-82
2021/07/03 11:04:45;;;;;;;5.75;3.00;;;;;;;16.11;89.52;100099.47;4980649;28;20049;-82
2021/07/03 11:07:12;;;;;;;7.70;3.78;;;;;;;16.12;89.25;100093.03;4979814;28;20054;-82
2021/07/03 11:09:38;;;;;;;5.15;3.40;;;;;;;16.17;89.04;100085.84;5005262;28;20085;-81
2021/07/03 11:12:11;;;;;;;7.32;3.42;;;;;;;16.31;89.04;100099.22;4971868;28;20022;-81
2021/07/03 11:14:57;;;;;;;5.57;3.20;;;;;;;16.23;89.12;100093.06;4982136;28;20030;-82
2021/07/03 11:17:24;;;;;;;6.32;3.28;;;;;;;16.35;89.01;100089.56;4961753;28;20037;-82